sensor_id;sensor_type;location;lat;lon;timestamp;P1;durP1;ratioP1;P2;durP2;ratioP2
74512;SDS011;62992;52.052;8.550;2022-12-18T00:01:04;20.73;;;11.10;;
74512;SDS011;62992;52.052;8.550;2022-12-18T00:03:56;22.88;;;12.20;;
74512;SDS011;62992;52.052;8.550;2022-12-18T00:06:41;25.38;;;12.00;;
74512;SDS011;62992;52.052;8.550;2022-12-18T00:09:25;20.55;;;11.77;;
74512;SDS011;62992;52.052;8.550;2022-12-18T00:12:09;24.35;;;12.60;;
74512;SDS011;62992;52.052;8.550;2022-12-18T00:14:53;22.80;;;12.32;;
74512;SDS011;62992;52.052;8.550;2022-12-18T00:17:37;19.73;;;10.63;;
74512;SDS011;62992;52.052;8.550;2022-12-18T00:20:21;28.35;;;11.18;;
74512;SDS011;62992;52.052;8.550;2022-12-18T00:23:09;19.23;;;9.45;;
74512;SDS011;62992;52.052;8.550;2022-12-18T00:25:53;24.65;;;12.57;;
74512;SDS011;62992;52.052;8.550;2022-12-18T00:28:37;27.45;;;12.52;;
74512;SDS011;62992;52.052;8.550;2022-12-18T00:31:22;23.30;;;10.07;;
74512;SDS011;62992;52.052;8.550;2022-12-18T00:34:11;21.55;;;10.73;;
74512;SDS011;62992;52.052;8.550;2022-12-18T00:36:56;25.02;;;10.98;;
74512;SDS011;62992;52.052;8.550;2022-12-18T00:39:40;22.85;;;11.35;;
74512;SDS011;62992;52.052;8.550;2022-12-18T00:42:24;20.85;;;10.75;;
74512;SDS011;62992;52.052;8.550;2022-12-18T00:45:28;21.85;;;11.20;;
74512;SDS011;62992;52.052;8.550;2022-12-18T00:48:14;25.15;;;11.93;;
74512;SDS011;62992;52.052;8.550;2022-12-18T00:50:58;19.95;;;10.48;;
74512;SDS011;62992;52.052;8.550;2022-12-18T00:53:42;17.65;;;8.55;;
74512;SDS011;62992;52.052;8.550;2022-12-18T00:56:26;21.63;;;10.68;;
74512;SDS011;62992;52.052;8.550;2022-12-18T00:59:10;16.00;;;8.93;;
74512;SDS011;62992;52.052;8.550;2022-12-18T01:01:54;16.27;;;9.38;;
74512;SDS011;62992;52.052;8.550;2022-12-18T01:04:38;15.00;;;7.82;;
74512;SDS011;62992;52.052;8.550;2022-12-18T01:07:22;18.17;;;9.18;;
74512;SDS011;62992;52.052;8.550;2022-12-18T01:10:06;22.80;;;10.63;;
74512;SDS011;62992;52.052;8.550;2022-12-18T01:12:52;21.08;;;10.75;;
74512;SDS011;62992;52.052;8.550;2022-12-18T01:15:36;21.38;;;8.60;;
74512;SDS011;62992;52.052;8.550;2022-12-18T01:18:20;19.92;;;9.52;;
74512;SDS011;62992;52.052;8.550;2022-12-18T01:21:08;20.05;;;9.63;;
74512;SDS011;62992;52.052;8.550;2022-12-18T01:23:55;20.27;;;9.13;;
74512;SDS011;62992;52.052;8.550;2022-12-18T01:26:40;16.20;;;9.30;;
74512;SDS011;62992;52.052;8.550;2022-12-18T01:29:24;23.67;;;10.32;;
74512;SDS011;62992;52.052;8.550;2022-12-18T01:32:08;18.73;;;8.00;;
74512;SDS011;62992;52.052;8.550;2022-12-18T01:34:53;20.35;;;7.85;;
74512;SDS011;62992;52.052;8.550;2022-12-18T01:37:37;17.08;;;8.75;;
74512;SDS011;62992;52.052;8.550;2022-12-18T01:40:21;25.88;;;9.55;;
74512;SDS011;62992;52.052;8.550;2022-12-18T01:43:05;21.83;;;8.85;;
74512;SDS011;62992;52.052;8.550;2022-12-18T01:45:52;16.10;;;9.52;;
74512;SDS011;62992;52.052;8.550;2022-12-18T01:48:36;17.77;;;9.00;;
74512;SDS011;62992;52.052;8.550;2022-12-18T01:51:22;15.13;;;7.10;;
74512;SDS011;62992;52.052;8.550;2022-12-18T01:54:07;23.27;;;10.27;;
74512;SDS011;62992;52.052;8.550;2022-12-18T01:56:51;14.73;;;9.07;;
74512;SDS011;62992;52.052;8.550;2022-12-18T01:59:34;17.10;;;8.15;;
74512;SDS011;62992;52.052;8.550;2022-12-18T02:02:20;11.95;;;8.23;;
74512;SDS011;62992;52.052;8.550;2022-12-18T02:05:05;14.48;;;8.10;;
74512;SDS011;62992;52.052;8.550;2022-12-18T02:17:02;20.77;;;8.45;;
74512;SDS011;62992;52.052;8.550;2022-12-18T02:20:25;15.27;;;9.02;;
74512;SDS011;62992;52.052;8.550;2022-12-18T02:26:30;18.92;;;9.85;;
74512;SDS011;62992;52.052;8.550;2022-12-18T02:29:25;16.08;;;9.43;;
74512;SDS011;62992;52.052;8.550;2022-12-18T02:32:15;17.75;;;9.10;;
74512;SDS011;62992;52.052;8.550;2022-12-18T02:35:04;19.95;;;10.10;;
74512;SDS011;62992;52.052;8.550;2022-12-18T02:37:50;19.67;;;8.60;;
74512;SDS011;62992;52.052;8.550;2022-12-18T02:40:38;19.83;;;7.85;;
74512;SDS011;62992;52.052;8.550;2022-12-18T02:46:25;12.07;;;6.80;;
74512;SDS011;62992;52.052;8.550;2022-12-18T02:52:37;13.23;;;7.32;;
74512;SDS011;62992;52.052;8.550;2022-12-18T02:58:33;15.50;;;7.13;;
74512;SDS011;62992;52.052;8.550;2022-12-18T03:01:38;13.85;;;7.03;;
74512;SDS011;62992;52.052;8.550;2022-12-18T03:04:40;16.92;;;6.68;;
74512;SDS011;62992;52.052;8.550;2022-12-18T03:07:36;14.55;;;7.57;;
74512;SDS011;62992;52.052;8.550;2022-12-18T03:10:28;11.40;;;5.70;;
74512;SDS011;62992;52.052;8.550;2022-12-18T03:13:17;12.05;;;7.55;;
74512;SDS011;62992;52.052;8.550;2022-12-18T03:16:10;15.38;;;6.35;;
74512;SDS011;62992;52.052;8.550;2022-12-18T03:19:01;13.75;;;7.45;;
74512;SDS011;62992;52.052;8.550;2022-12-18T03:21:53;13.25;;;6.72;;
74512;SDS011;62992;52.052;8.550;2022-12-18T03:24:39;15.88;;;6.82;;
74512;SDS011;62992;52.052;8.550;2022-12-18T03:27:24;13.95;;;6.47;;
74512;SDS011;62992;52.052;8.550;2022-12-18T03:30:11;15.23;;;6.95;;
74512;SDS011;62992;52.052;8.550;2022-12-18T03:33:02;14.40;;;7.45;;
74512;SDS011;62992;52.052;8.550;2022-12-18T03:35:55;13.25;;;7.93;;
74512;SDS011;62992;52.052;8.550;2022-12-18T03:38:40;19.02;;;7.63;;
74512;SDS011;62992;52.052;8.550;2022-12-18T03:41:32;14.73;;;7.25;;
74512;SDS011;62992;52.052;8.550;2022-12-18T03:51:30;18.23;;;7.75;;
74512;SDS011;62992;52.052;8.550;2022-12-18T03:54:06;16.70;;;7.80;;
74512;SDS011;62992;52.052;8.550;2022-12-18T03:56:54;17.70;;;6.68;;
74512;SDS011;62992;52.052;8.550;2022-12-18T03:59:45;19.15;;;7.78;;
74512;SDS011;62992;52.052;8.550;2022-12-18T04:02:30;16.67;;;7.45;;
74512;SDS011;62992;52.052;8.550;2022-12-18T04:08:00;11.10;;;6.53;;
74512;SDS011;62992;52.052;8.550;2022-12-18T04:10:45;9.55;;;5.47;;
74512;SDS011;62992;52.052;8.550;2022-12-18T04:13:32;13.75;;;6.45;;
74512;SDS011;62992;52.052;8.550;2022-12-18T04:16:21;11.93;;;7.22;;
74512;SDS011;62992;52.052;8.550;2022-12-18T04:19:05;13.93;;;6.80;;
74512;SDS011;62992;52.052;8.550;2022-12-18T04:21:49;17.90;;;7.00;;
74512;SDS011;62992;52.052;8.550;2022-12-18T04:24:33;9.07;;;5.30;;
74512;SDS011;62992;52.052;8.550;2022-12-18T04:27:17;14.70;;;7.75;;
74512;SDS011;62992;52.052;8.550;2022-12-18T04:30:02;13.10;;;6.30;;
74512;SDS011;62992;52.052;8.550;2022-12-18T04:32:47;18.25;;;7.88;;
74512;SDS011;62992;52.052;8.550;2022-12-18T04:35:31;10.40;;;5.38;;
74512;SDS011;62992;52.052;8.550;2022-12-18T04:38:15;14.18;;;6.57;;
74512;SDS011;62992;52.052;8.550;2022-12-18T04:40:59;7.53;;;4.43;;
74512;SDS011;62992;52.052;8.550;2022-12-18T04:43:43;8.85;;;4.70;;
74512;SDS011;62992;52.052;8.550;2022-12-18T04:46:27;13.57;;;6.67;;
74512;SDS011;62992;52.052;8.550;2022-12-18T04:49:12;7.60;;;4.63;;
74512;SDS011;62992;52.052;8.550;2022-12-18T04:51:56;8.80;;;4.53;;
74512;SDS011;62992;52.052;8.550;2022-12-18T04:54:40;11.43;;;4.90;;
74512;SDS011;62992;52.052;8.550;2022-12-18T04:57:24;6.97;;;3.90;;
74512;SDS011;62992;52.052;8.550;2022-12-18T05:00:08;9.05;;;5.68;;
74512;SDS011;62992;52.052;8.550;2022-12-18T05:02:52;15.50;;;6.10;;
74512;SDS011;62992;52.052;8.550;2022-12-18T05:05:37;11.43;;;5.43;;
74512;SDS011;62992;52.052;8.550;2022-12-18T05:08:21;18.27;;;7.55;;
74512;SDS011;62992;52.052;8.550;2022-12-18T05:11:10;10.45;;;6.60;;
74512;SDS011;62992;52.052;8.550;2022-12-18T05:13:58;12.10;;;6.53;;
74512;SDS011;62992;52.052;8.550;2022-12-18T05:16:43;13.85;;;7.75;;
74512;SDS011;62992;52.052;8.550;2022-12-18T05:19:26;15.82;;;7.07;;
74512;SDS011;62992;52.052;8.550;2022-12-18T05:22:11;17.25;;;7.38;;
74512;SDS011;62992;52.052;8.550;2022-12-18T05:24:55;25.53;;;7.63;;
74512;SDS011;62992;52.052;8.550;2022-12-18T05:27:39;14.57;;;6.85;;
74512;SDS011;62992;52.052;8.550;2022-12-18T05:30:23;13.13;;;6.70;;
74512;SDS011;62992;52.052;8.550;2022-12-18T05:33:07;13.60;;;6.32;;
74512;SDS011;62992;52.052;8.550;2022-12-18T05:35:55;10.18;;;5.60;;
74512;SDS011;62992;52.052;8.550;2022-12-18T05:38:41;16.48;;;7.43;;
74512;SDS011;62992;52.052;8.550;2022-12-18T05:41:25;10.93;;;6.75;;
74512;SDS011;62992;52.052;8.550;2022-12-18T05:44:10;14.35;;;7.40;;
74512;SDS011;62992;52.052;8.550;2022-12-18T05:46:54;14.63;;;6.20;;
74512;SDS011;62992;52.052;8.550;2022-12-18T05:49:38;16.77;;;7.93;;
74512;SDS011;62992;52.052;8.550;2022-12-18T05:52:22;17.70;;;8.60;;
74512;SDS011;62992;52.052;8.550;2022-12-18T05:55:07;12.57;;;6.40;;
74512;SDS011;62992;52.052;8.550;2022-12-18T05:57:51;11.38;;;7.03;;
74512;SDS011;62992;52.052;8.550;2022-12-18T06:00:35;11.50;;;6.45;;
74512;SDS011;62992;52.052;8.550;2022-12-18T06:03:24;8.23;;;4.25;;
74512;SDS011;62992;52.052;8.550;2022-12-18T06:06:41;10.52;;;5.93;;
74512;SDS011;62992;52.052;8.550;2022-12-18T06:09:19;12.55;;;6.28;;
74512;SDS011;62992;52.052;8.550;2022-12-18T06:12:03;9.27;;;5.93;;
74512;SDS011;62992;52.052;8.550;2022-12-18T06:14:47;8.87;;;5.23;;
74512;SDS011;62992;52.052;8.550;2022-12-18T06:17:32;15.63;;;6.88;;
74512;SDS011;62992;52.052;8.550;2022-12-18T06:20:16;14.50;;;6.55;;
74512;SDS011;62992;52.052;8.550;2022-12-18T06:23:01;14.05;;;7.05;;
74512;SDS011;62992;52.052;8.550;2022-12-18T06:25:45;11.23;;;6.32;;
74512;SDS011;62992;52.052;8.550;2022-12-18T06:28:30;11.05;;;6.13;;
74512;SDS011;62992;52.052;8.550;2022-12-18T06:31:14;19.77;;;6.78;;
74512;SDS011;62992;52.052;8.550;2022-12-18T06:33:58;13.25;;;6.07;;
74512;SDS011;62992;52.052;8.550;2022-12-18T06:36:42;14.15;;;6.45;;
74512;SDS011;62992;52.052;8.550;2022-12-18T06:39:29;13.63;;;6.55;;
74512;SDS011;62992;52.052;8.550;2022-12-18T06:42:13;11.30;;;6.30;;
74512;SDS011;62992;52.052;8.550;2022-12-18T06:44:57;11.45;;;5.38;;
74512;SDS011;62992;52.052;8.550;2022-12-18T06:47:41;12.60;;;6.03;;
74512;SDS011;62992;52.052;8.550;2022-12-18T06:50:25;11.75;;;6.82;;
74512;SDS011;62992;52.052;8.550;2022-12-18T06:53:10;12.97;;;6.23;;
74512;SDS011;62992;52.052;8.550;2022-12-18T06:56:04;13.40;;;6.50;;
74512;SDS011;62992;52.052;8.550;2022-12-18T06:58:50;10.63;;;6.05;;
74512;SDS011;62992;52.052;8.550;2022-12-18T07:01:34;14.75;;;7.35;;
74512;SDS011;62992;52.052;8.550;2022-12-18T07:04:18;11.32;;;5.72;;
74512;SDS011;62992;52.052;8.550;2022-12-18T07:07:02;14.85;;;7.85;;
74512;SDS011;62992;52.052;8.550;2022-12-18T07:09:46;11.60;;;6.50;;
74512;SDS011;62992;52.052;8.550;2022-12-18T07:12:32;16.15;;;6.93;;
74512;SDS011;62992;52.052;8.550;2022-12-18T07:15:16;14.95;;;6.43;;
74512;SDS011;62992;52.052;8.550;2022-12-18T07:18:00;15.82;;;8.20;;
74512;SDS011;62992;52.052;8.550;2022-12-18T07:20:44;12.57;;;6.63;;
74512;SDS011;62992;52.052;8.550;2022-12-18T07:23:28;15.05;;;7.47;;
74512;SDS011;62992;52.052;8.550;2022-12-18T07:26:13;11.88;;;6.95;;
74512;SDS011;62992;52.052;8.550;2022-12-18T07:28:59;13.73;;;6.85;;
74512;SDS011;62992;52.052;8.550;2022-12-18T07:31:43;10.73;;;6.43;;
74512;SDS011;62992;52.052;8.550;2022-12-18T07:34:27;14.60;;;8.40;;
74512;SDS011;62992;52.052;8.550;2022-12-18T07:37:11;15.68;;;6.80;;
74512;SDS011;62992;52.052;8.550;2022-12-18T07:39:55;12.05;;;6.22;;
74512;SDS011;62992;52.052;8.550;2022-12-18T07:42:39;8.95;;;5.43;;
74512;SDS011;62992;52.052;8.550;2022-12-18T07:45:23;14.25;;;7.03;;
74512;SDS011;62992;52.052;8.550;2022-12-18T07:48:07;15.07;;;6.70;;
74512;SDS011;62992;52.052;8.550;2022-12-18T07:50:51;11.15;;;6.90;;
74512;SDS011;62992;52.052;8.550;2022-12-18T07:53:36;13.05;;;6.30;;
74512;SDS011;62992;52.052;8.550;2022-12-18T07:56:20;12.52;;;6.35;;
74512;SDS011;62992;52.052;8.550;2022-12-18T07:59:05;12.48;;;7.47;;
74512;SDS011;62992;52.052;8.550;2022-12-18T08:01:49;8.88;;;5.57;;
74512;SDS011;62992;52.052;8.550;2022-12-18T08:04:33;13.02;;;6.15;;
74512;SDS011;62992;52.052;8.550;2022-12-18T08:07:17;8.85;;;5.30;;
74512;SDS011;62992;52.052;8.550;2022-12-18T08:10:01;17.25;;;8.52;;
74512;SDS011;62992;52.052;8.550;2022-12-18T08:12:45;18.00;;;7.10;;
74512;SDS011;62992;52.052;8.550;2022-12-18T08:15:32;16.65;;;7.88;;
74512;SDS011;62992;52.052;8.550;2022-12-18T08:18:16;14.90;;;7.45;;
74512;SDS011;62992;52.052;8.550;2022-12-18T08:21:10;18.60;;;7.15;;
74512;SDS011;62992;52.052;8.550;2022-12-18T08:23:56;17.33;;;8.00;;
74512;SDS011;62992;52.052;8.550;2022-12-18T08:26:44;13.20;;;7.00;;
74512;SDS011;62992;52.052;8.550;2022-12-18T08:29:28;14.88;;;7.10;;
74512;SDS011;62992;52.052;8.550;2022-12-18T08:32:13;15.30;;;7.85;;
74512;SDS011;62992;52.052;8.550;2022-12-18T08:34:58;16.85;;;8.15;;
74512;SDS011;62992;52.052;8.550;2022-12-18T08:37:42;17.67;;;8.25;;
74512;SDS011;62992;52.052;8.550;2022-12-18T08:40:27;20.52;;;9.73;;
74512;SDS011;62992;52.052;8.550;2022-12-18T08:43:11;22.23;;;11.07;;
74512;SDS011;62992;52.052;8.550;2022-12-18T08:46:15;33.47;;;15.07;;
74512;SDS011;62992;52.052;8.550;2022-12-18T08:48:59;34.83;;;18.35;;
74512;SDS011;62992;52.052;8.550;2022-12-18T08:51:44;23.90;;;12.43;;
74512;SDS011;62992;52.052;8.550;2022-12-18T08:54:28;38.40;;;20.15;;
74512;SDS011;62992;52.052;8.550;2022-12-18T08:57:11;29.75;;;17.95;;
74512;SDS011;62992;52.052;8.550;2022-12-18T08:59:55;41.55;;;18.75;;
74512;SDS011;62992;52.052;8.550;2022-12-18T09:02:39;38.83;;;19.50;;
74512;SDS011;62992;52.052;8.550;2022-12-18T09:05:24;37.25;;;17.77;;
74512;SDS011;62992;52.052;8.550;2022-12-18T09:08:08;38.60;;;19.13;;
74512;SDS011;62992;52.052;8.550;2022-12-18T09:10:52;35.85;;;17.65;;
74512;SDS011;62992;52.052;8.550;2022-12-18T09:13:37;32.42;;;17.05;;
74512;SDS011;62992;52.052;8.550;2022-12-18T09:16:21;28.67;;;16.67;;
74512;SDS011;62992;52.052;8.550;2022-12-18T09:19:07;36.75;;;19.08;;
74512;SDS011;62992;52.052;8.550;2022-12-18T09:21:52;31.55;;;16.77;;
74512;SDS011;62992;52.052;8.550;2022-12-18T09:24:36;29.80;;;16.73;;
74512;SDS011;62992;52.052;8.550;2022-12-18T09:27:21;31.85;;;18.13;;
74512;SDS011;62992;52.052;8.550;2022-12-18T09:30:05;29.05;;;17.15;;
74512;SDS011;62992;52.052;8.550;2022-12-18T09:32:50;30.63;;;15.38;;
74512;SDS011;62992;52.052;8.550;2022-12-18T09:35:39;32.50;;;16.65;;
74512;SDS011;62992;52.052;8.550;2022-12-18T09:38:24;28.77;;;14.73;;
74512;SDS011;62992;52.052;8.550;2022-12-18T09:44:36;28.23;;;14.95;;
74512;SDS011;62992;52.052;8.550;2022-12-18T09:47:28;28.63;;;14.63;;
74512;SDS011;62992;52.052;8.550;2022-12-18T09:50:33;25.33;;;13.77;;
74512;SDS011;62992;52.052;8.550;2022-12-18T09:53:21;24.40;;;12.98;;
74512;SDS011;62992;52.052;8.550;2022-12-18T09:56:12;23.35;;;13.05;;
74512;SDS011;62992;52.052;8.550;2022-12-18T09:59:01;26.20;;;13.27;;
74512;SDS011;62992;52.052;8.550;2022-12-18T10:01:46;21.38;;;11.40;;
74512;SDS011;62992;52.052;8.550;2022-12-18T10:04:30;20.05;;;9.82;;
74512;SDS011;62992;52.052;8.550;2022-12-18T10:07:20;19.63;;;9.63;;
74512;SDS011;62992;52.052;8.550;2022-12-18T10:10:26;17.27;;;9.93;;
74512;SDS011;62992;52.052;8.550;2022-12-18T10:19:24;14.63;;;6.50;;
74512;SDS011;62992;52.052;8.550;2022-12-18T10:25:24;17.88;;;8.77;;
74512;SDS011;62992;52.052;8.550;2022-12-18T10:28:11;19.58;;;8.00;;
74512;SDS011;62992;52.052;8.550;2022-12-18T10:30:58;13.32;;;7.88;;
74512;SDS011;62992;52.052;8.550;2022-12-18T10:33:42;12.13;;;6.30;;
74512;SDS011;62992;52.052;8.550;2022-12-18T10:36:26;16.05;;;6.82;;
74512;SDS011;62992;52.052;8.550;2022-12-18T10:39:14;15.25;;;6.80;;
74512;SDS011;62992;52.052;8.550;2022-12-18T10:45:13;10.85;;;5.97;;
74512;SDS011;62992;52.052;8.550;2022-12-18T10:47:59;10.13;;;6.10;;
74512;SDS011;62992;52.052;8.550;2022-12-18T10:50:46;11.93;;;6.10;;
74512;SDS011;62992;52.052;8.550;2022-12-18T10:53:33;11.23;;;5.68;;
74512;SDS011;62992;52.052;8.550;2022-12-18T10:56:20;11.45;;;5.00;;
74512;SDS011;62992;52.052;8.550;2022-12-18T10:59:09;9.73;;;4.80;;
74512;SDS011;62992;52.052;8.550;2022-12-18T11:01:56;10.73;;;5.72;;
74512;SDS011;62992;52.052;8.550;2022-12-18T11:04:50;11.57;;;6.13;;
74512;SDS011;62992;52.052;8.550;2022-12-18T11:07:48;8.45;;;3.92;;
74512;SDS011;62992;52.052;8.550;2022-12-18T11:10:35;9.20;;;4.75;;
74512;SDS011;62992;52.052;8.550;2022-12-18T11:13:22;8.02;;;4.60;;
74512;SDS011;62992;52.052;8.550;2022-12-18T11:16:17;8.77;;;4.88;;
74512;SDS011;62992;52.052;8.550;2022-12-18T11:19:10;11.13;;;4.75;;
74512;SDS011;62992;52.052;8.550;2022-12-18T11:21:57;9.75;;;5.05;;
74512;SDS011;62992;52.052;8.550;2022-12-18T11:24:42;11.07;;;3.97;;
74512;SDS011;62992;52.052;8.550;2022-12-18T11:27:26;9.25;;;5.35;;
74512;SDS011;62992;52.052;8.550;2022-12-18T11:30:21;8.70;;;4.13;;
74512;SDS011;62992;52.052;8.550;2022-12-18T11:33:11;10.00;;;4.72;;
74512;SDS011;62992;52.052;8.550;2022-12-18T11:36:00;12.15;;;4.93;;
74512;SDS011;62992;52.052;8.550;2022-12-18T11:38:46;10.27;;;4.57;;
74512;SDS011;62992;52.052;8.550;2022-12-18T11:41:35;6.70;;;2.97;;
74512;SDS011;62992;52.052;8.550;2022-12-18T11:44:50;10.48;;;4.95;;
74512;SDS011;62992;52.052;8.550;2022-12-18T11:47:44;9.73;;;4.80;;
74512;SDS011;62992;52.052;8.550;2022-12-18T11:53:19;10.38;;;4.72;;
74512;SDS011;62992;52.052;8.550;2022-12-18T12:12:02;7.85;;;4.15;;
74512;SDS011;62992;52.052;8.550;2022-12-18T12:18:33;10.82;;;4.40;;
74512;SDS011;62992;52.052;8.550;2022-12-18T12:39:16;10.18;;;4.28;;
74512;SDS011;62992;52.052;8.550;2022-12-18T12:42:05;8.18;;;4.82;;
74512;SDS011;62992;52.052;8.550;2022-12-18T12:45:20;9.82;;;4.07;;
74512;SDS011;62992;52.052;8.550;2022-12-18T12:48:37;11.05;;;5.20;;
74512;SDS011;62992;52.052;8.550;2022-12-18T12:51:34;10.50;;;5.80;;
74512;SDS011;62992;52.052;8.550;2022-12-18T12:54:21;10.45;;;4.85;;
74512;SDS011;62992;52.052;8.550;2022-12-18T13:00:07;12.40;;;7.30;;
74512;SDS011;62992;52.052;8.550;2022-12-18T13:05:52;11.73;;;5.57;;
74512;SDS011;62992;52.052;8.550;2022-12-18T13:08:56;13.43;;;4.78;;
74512;SDS011;62992;52.052;8.550;2022-12-18T13:11:43;10.80;;;4.78;;
74512;SDS011;62992;52.052;8.550;2022-12-18T13:14:47;8.88;;;4.75;;
74512;SDS011;62992;52.052;8.550;2022-12-18T13:17:32;10.20;;;5.43;;
74512;SDS011;62992;52.052;8.550;2022-12-18T13:20:16;8.70;;;4.13;;
74512;SDS011;62992;52.052;8.550;2022-12-18T13:23:00;8.45;;;5.50;;
74512;SDS011;62992;52.052;8.550;2022-12-18T13:28:53;8.18;;;4.40;;
74512;SDS011;62992;52.052;8.550;2022-12-18T13:34:23;8.23;;;4.35;;
74512;SDS011;62992;52.052;8.550;2022-12-18T13:43:32;8.88;;;4.60;;
74512;SDS011;62992;52.052;8.550;2022-12-18T13:51:57;9.70;;;4.25;;
74512;SDS011;62992;52.052;8.550;2022-12-18T13:54:45;8.75;;;4.30;;
74512;SDS011;62992;52.052;8.550;2022-12-18T13:57:35;9.93;;;4.25;;
74512;SDS011;62992;52.052;8.550;2022-12-18T14:00:30;7.93;;;3.95;;
74512;SDS011;62992;52.052;8.550;2022-12-18T14:03:20;10.23;;;4.55;;
74512;SDS011;62992;52.052;8.550;2022-12-18T14:06:06;7.28;;;4.32;;
74512;SDS011;62992;52.052;8.550;2022-12-18T14:08:52;8.07;;;4.63;;
74512;SDS011;62992;52.052;8.550;2022-12-18T14:11:36;10.60;;;4.68;;
74512;SDS011;62992;52.052;8.550;2022-12-18T14:14:20;10.63;;;4.07;;
74512;SDS011;62992;52.052;8.550;2022-12-18T14:17:08;9.82;;;4.85;;
74512;SDS011;62992;52.052;8.550;2022-12-18T14:19:54;9.35;;;4.90;;
74512;SDS011;62992;52.052;8.550;2022-12-18T14:22:39;14.32;;;6.38;;
74512;SDS011;62992;52.052;8.550;2022-12-18T14:25:29;10.50;;;5.40;;
74512;SDS011;62992;52.052;8.550;2022-12-18T14:28:14;10.95;;;5.43;;
74512;SDS011;62992;52.052;8.550;2022-12-18T14:30:58;9.88;;;5.40;;
74512;SDS011;62992;52.052;8.550;2022-12-18T14:33:42;10.18;;;4.97;;
74512;SDS011;62992;52.052;8.550;2022-12-18T14:36:28;11.35;;;4.78;;
74512;SDS011;62992;52.052;8.550;2022-12-18T14:39:16;7.72;;;3.70;;
74512;SDS011;62992;52.052;8.550;2022-12-18T14:42:01;9.95;;;4.57;;
74512;SDS011;62992;52.052;8.550;2022-12-18T14:44:45;8.52;;;4.25;;
74512;SDS011;62992;52.052;8.550;2022-12-18T14:47:29;9.32;;;4.78;;
74512;SDS011;62992;52.052;8.550;2022-12-18T14:50:13;7.88;;;4.20;;
74512;SDS011;62992;52.052;8.550;2022-12-18T14:52:58;9.83;;;4.70;;
74512;SDS011;62992;52.052;8.550;2022-12-18T14:55:44;8.68;;;4.85;;
74512;SDS011;62992;52.052;8.550;2022-12-18T14:58:30;10.85;;;5.07;;
74512;SDS011;62992;52.052;8.550;2022-12-18T15:01:57;11.05;;;6.13;;
74512;SDS011;62992;52.052;8.550;2022-12-18T15:04:39;8.75;;;4.68;;
74512;SDS011;62992;52.052;8.550;2022-12-18T15:07:25;9.40;;;4.68;;
74512;SDS011;62992;52.052;8.550;2022-12-18T15:15:48;9.70;;;4.95;;
74512;SDS011;62992;52.052;8.550;2022-12-18T15:18:33;11.33;;;4.40;;
74512;SDS011;62992;52.052;8.550;2022-12-18T15:21:19;8.80;;;4.50;;
74512;SDS011;62992;52.052;8.550;2022-12-18T15:24:04;11.93;;;5.07;;
74512;SDS011;62992;52.052;8.550;2022-12-18T15:27:01;13.27;;;4.60;;
74512;SDS011;62992;52.052;8.550;2022-12-18T15:29:58;8.63;;;4.90;;
74512;SDS011;62992;52.052;8.550;2022-12-18T15:32:52;8.00;;;4.38;;
74512;SDS011;62992;52.052;8.550;2022-12-18T15:36:01;12.10;;;5.15;;
74512;SDS011;62992;52.052;8.550;2022-12-18T15:38:48;8.98;;;4.15;;
74512;SDS011;62992;52.052;8.550;2022-12-18T15:41:35;11.43;;;5.00;;
74512;SDS011;62992;52.052;8.550;2022-12-18T15:44:23;7.80;;;4.72;;
74512;SDS011;62992;52.052;8.550;2022-12-18T15:47:10;13.10;;;5.18;;
74512;SDS011;62992;52.052;8.550;2022-12-18T15:49:56;11.27;;;5.25;;
74512;SDS011;62992;52.052;8.550;2022-12-18T15:52:47;10.82;;;5.10;;
74512;SDS011;62992;52.052;8.550;2022-12-18T15:55:34;11.30;;;5.15;;
74512;SDS011;62992;52.052;8.550;2022-12-18T15:58:37;9.77;;;4.78;;
74512;SDS011;62992;52.052;8.550;2022-12-18T16:01:22;8.20;;;4.35;;
74512;SDS011;62992;52.052;8.550;2022-12-18T16:04:09;9.02;;;4.25;;
74512;SDS011;62992;52.052;8.550;2022-12-18T16:06:55;11.85;;;5.50;;
74512;SDS011;62992;52.052;8.550;2022-12-18T16:09:39;12.38;;;5.60;;
74512;SDS011;62992;52.052;8.550;2022-12-18T16:12:24;12.65;;;5.45;;
74512;SDS011;62992;52.052;8.550;2022-12-18T16:15:10;12.30;;;6.32;;
74512;SDS011;62992;52.052;8.550;2022-12-18T16:17:57;12.50;;;5.15;;
74512;SDS011;62992;52.052;8.550;2022-12-18T16:20:41;10.27;;;6.05;;
74512;SDS011;62992;52.052;8.550;2022-12-18T16:23:25;9.65;;;4.80;;
74512;SDS011;62992;52.052;8.550;2022-12-18T16:26:10;10.65;;;5.28;;
74512;SDS011;62992;52.052;8.550;2022-12-18T16:28:54;13.38;;;5.53;;
74512;SDS011;62992;52.052;8.550;2022-12-18T16:31:38;8.02;;;4.90;;
74512;SDS011;62992;52.052;8.550;2022-12-18T16:37:14;10.23;;;4.72;;
74512;SDS011;62992;52.052;8.550;2022-12-18T16:39:59;14.15;;;5.53;;
74512;SDS011;62992;52.052;8.550;2022-12-18T16:42:44;7.72;;;4.57;;
74512;SDS011;62992;52.052;8.550;2022-12-18T16:45:29;12.27;;;5.43;;
74512;SDS011;62992;52.052;8.550;2022-12-18T16:48:16;9.23;;;4.50;;
74512;SDS011;62992;52.052;8.550;2022-12-18T16:51:01;10.60;;;5.07;;
74512;SDS011;62992;52.052;8.550;2022-12-18T16:53:47;10.38;;;4.68;;
74512;SDS011;62992;52.052;8.550;2022-12-18T16:56:31;8.25;;;4.05;;
74512;SDS011;62992;52.052;8.550;2022-12-18T16:59:16;12.52;;;4.85;;
74512;SDS011;62992;52.052;8.550;2022-12-18T17:02:00;10.40;;;5.25;;
74512;SDS011;62992;52.052;8.550;2022-12-18T17:04:44;11.25;;;5.68;;
74512;SDS011;62992;52.052;8.550;2022-12-18T17:07:29;9.18;;;4.93;;
74512;SDS011;62992;52.052;8.550;2022-12-18T17:10:13;12.38;;;5.57;;
74512;SDS011;62992;52.052;8.550;2022-12-18T17:12:57;9.65;;;4.40;;
74512;SDS011;62992;52.052;8.550;2022-12-18T17:15:42;11.30;;;5.50;;
74512;SDS011;62992;52.052;8.550;2022-12-18T17:18:26;9.38;;;5.05;;
74512;SDS011;62992;52.052;8.550;2022-12-18T17:21:11;9.50;;;4.55;;
74512;SDS011;62992;52.052;8.550;2022-12-18T17:24:00;12.50;;;6.45;;
74512;SDS011;62992;52.052;8.550;2022-12-18T17:26:45;8.77;;;4.65;;
74512;SDS011;62992;52.052;8.550;2022-12-18T17:29:30;10.68;;;5.00;;
74512;SDS011;62992;52.052;8.550;2022-12-18T17:32:15;9.68;;;4.32;;
74512;SDS011;62992;52.052;8.550;2022-12-18T17:35:00;12.10;;;5.85;;
74512;SDS011;62992;52.052;8.550;2022-12-18T17:37:44;12.10;;;5.22;;
74512;SDS011;62992;52.052;8.550;2022-12-18T17:40:28;10.10;;;5.53;;
74512;SDS011;62992;52.052;8.550;2022-12-18T17:43:15;11.93;;;5.45;;
74512;SDS011;62992;52.052;8.550;2022-12-18T17:46:02;11.38;;;6.03;;
74512;SDS011;62992;52.052;8.550;2022-12-18T17:48:47;13.90;;;4.88;;
74512;SDS011;62992;52.052;8.550;2022-12-18T17:51:32;10.73;;;5.10;;
74512;SDS011;62992;52.052;8.550;2022-12-18T17:54:16;7.18;;;3.65;;
74512;SDS011;62992;52.052;8.550;2022-12-18T17:57:00;8.30;;;4.47;;
74512;SDS011;62992;52.052;8.550;2022-12-18T17:59:44;10.82;;;7.03;;
74512;SDS011;62992;52.052;8.550;2022-12-18T18:02:28;10.88;;;5.60;;
74512;SDS011;62992;52.052;8.550;2022-12-18T18:05:12;9.68;;;5.53;;
74512;SDS011;62992;52.052;8.550;2022-12-18T18:07:57;12.52;;;5.40;;
74512;SDS011;62992;52.052;8.550;2022-12-18T18:10:44;9.23;;;5.00;;
74512;SDS011;62992;52.052;8.550;2022-12-18T18:13:31;7.82;;;4.88;;
74512;SDS011;62992;52.052;8.550;2022-12-18T18:16:35;13.60;;;5.60;;
74512;SDS011;62992;52.052;8.550;2022-12-18T18:19:23;7.75;;;3.65;;
74512;SDS011;62992;52.052;8.550;2022-12-18T18:22:08;8.38;;;4.18;;
74512;SDS011;62992;52.052;8.550;2022-12-18T18:24:53;11.52;;;5.05;;
74512;SDS011;62992;52.052;8.550;2022-12-18T18:27:37;12.85;;;4.57;;
74512;SDS011;62992;52.052;8.550;2022-12-18T18:30:21;12.70;;;4.70;;
74512;SDS011;62992;52.052;8.550;2022-12-18T18:33:06;14.07;;;6.38;;